createdAt,value
2019-06-07T00:00:00.079Z,15.19
2019-06-07T00:05:00.134Z,14.81
2019-06-07T00:10:00.061Z,14.88
2019-06-07T00:15:00.115Z,14.81
2019-06-07T00:20:00.092Z,14.75
2019-06-07T00:25:00.106Z,14.69
2019-06-07T00:30:00.088Z,14.63
2019-06-07T00:35:00.108Z,14.56
2019-06-07T00:40:13.817Z,14.75
2019-06-07T00:45:00.099Z,14.63
2019-06-07T00:50:00.091Z,14.38
2019-06-07T00:55:00.061Z,14.06
2019-06-07T01:00:00.103Z,13.88
2019-06-07T01:05:00.101Z,13.88
2019-06-07T01:10:00.099Z,13.94
2019-06-07T01:15:00.132Z,14.06
2019-06-07T01:20:00.090Z,14
2019-06-07T01:25:00.112Z,13.94
2019-06-07T01:30:00.091Z,14
2019-06-07T01:35:00.111Z,14.13
2019-06-07T01:40:00.096Z,14.13
2019-06-07T01:45:00.175Z,14.06
2019-06-07T01:50:00.060Z,14.06
2019-06-07T01:55:00.134Z,14.06
2019-06-07T02:00:00.138Z,14.06
2019-06-07T02:05:00.088Z,14.13
2019-06-07T02:10:00.066Z,14.13
2019-06-07T02:15:00.121Z,14
2019-06-07T02:20:00.115Z,14
2019-06-07T02:25:34.367Z,14
2019-06-07T02:30:00.211Z,14.06
2019-06-07T02:35:00.065Z,14.13
2019-06-07T02:40:00.115Z,14.19
2019-06-07T02:45:00.061Z,14.19
2019-06-07T02:50:00.106Z,14.13
2019-06-07T02:55:00.127Z,14
2019-06-07T03:00:07.479Z,14
2019-06-07T03:05:00.113Z,14
2019-06-07T03:10:00.106Z,14
2019-06-07T03:15:00.088Z,14
2019-06-07T03:20:00.098Z,14.06
2019-06-07T03:25:00.110Z,14.13
2019-06-07T03:30:00.064Z,14.13
2019-06-07T03:35:00.092Z,14.06
2019-06-07T03:40:00.093Z,14.19
2019-06-07T03:45:00.108Z,14.19
2019-06-07T03:50:00.102Z,14.19
2019-06-07T03:55:00.099Z,14.19
2019-06-07T04:00:00.109Z,14.19
2019-06-07T04:05:00.092Z,14.25
2019-06-07T04:10:00.111Z,14.19
2019-06-07T04:15:00.092Z,14.25
2019-06-07T04:20:00.108Z,14.31
2019-06-07T04:25:00.115Z,14.44
2019-06-07T04:30:07.015Z,14.44
2019-06-07T04:35:00.097Z,14.56
2019-06-07T04:40:00.127Z,14.69
2019-06-07T04:45:00.092Z,14.75
2019-06-07T04:50:00.097Z,14.75
2019-06-07T04:55:00.148Z,14.75
2019-06-07T05:00:12.601Z,14.81
2019-06-07T05:05:00.089Z,14.88
2019-06-07T05:10:00.089Z,14.94
2019-06-07T05:15:00.055Z,15.06
2019-06-07T05:20:00.102Z,15.5
2019-06-07T05:25:00.117Z,15.94
2019-06-07T05:30:09.382Z,16
2019-06-07T05:35:00.068Z,16.5
2019-06-07T05:40:00.099Z,16.69
2019-06-07T05:45:00.106Z,17.25
2019-06-07T05:50:00.103Z,17.38
2019-06-07T05:55:00.108Z,17.69
2019-06-07T06:00:00.099Z,18
2019-06-07T06:05:00.121Z,18.31
2019-06-07T06:10:00.065Z,18.19
2019-06-07T06:15:00.101Z,18.94
2019-06-07T06:20:00.102Z,19.88
2019-06-07T06:25:30.463Z,21.25
2019-06-07T06:30:00.180Z,24.5
2019-06-07T06:35:00.092Z,27
2019-06-07T06:40:00.096Z,26.81
2019-06-07T06:45:00.101Z,26.25
2019-06-07T06:50:00.120Z,26.44
2019-06-07T06:55:01.017Z,26.88
2019-06-07T07:00:00.095Z,26.31
2019-06-07T07:05:00.057Z,23.69
2019-06-07T07:10:00.281Z,22.38
2019-06-07T07:15:00.103Z,24.06
2019-06-07T07:20:00.123Z,24.5
2019-06-07T07:25:00.092Z,21.94
2019-06-07T07:30:34.607Z,21.06
2019-06-07T07:35:00.775Z,20.06
2019-06-07T07:40:09.395Z,20
2019-06-07T07:45:00.100Z,20.69
2019-06-07T07:50:00.099Z,20.63
2019-06-07T07:55:00.109Z,20.31
2019-06-07T08:00:25.510Z,20.31
2019-06-07T08:05:20.858Z,21.81
2019-06-07T08:10:03.782Z,21.38
2019-06-07T08:15:03.209Z,22.63
2019-06-07T08:20:02.784Z,24
2019-06-07T08:25:04.079Z,24.75
2019-06-07T08:30:25.622Z,24.31
2019-06-07T08:35:05.769Z,23.5
2019-06-07T08:40:01.785Z,23.38
2019-06-07T08:45:03.515Z,23
2019-06-07T08:50:06.253Z,22.63
2019-06-07T08:55:04.443Z,22.38
2019-06-07T09:00:07.015Z,21.25
2019-06-07T09:05:06.706Z,20.94
2019-06-07T09:10:08.253Z,21.5
2019-06-07T09:15:14.410Z,21.75
2019-06-07T09:20:06.282Z,21.38
2019-06-07T09:25:02.667Z,21.81
2019-06-07T09:30:03.081Z,22.06
2019-06-07T09:35:05.259Z,23
2019-06-07T09:40:10.181Z,23.25
2019-06-07T09:45:01.070Z,22.56
2019-06-07T09:50:05.860Z,22.69
2019-06-07T09:55:10.449Z,22.44
2019-06-07T10:00:02.522Z,22.38
2019-06-07T10:05:02.197Z,22.81
2019-06-07T10:15:00.610Z,21.38
2019-06-07T10:20:02.019Z,21.13
2019-06-07T10:25:00.122Z,21.31
2019-06-07T10:30:00.325Z,22
2019-06-07T10:35:00.489Z,21.38
2019-06-07T10:40:00.590Z,21.31
2019-06-07T10:45:02.310Z,21.06
2019-06-07T10:50:00.151Z,21.63
2019-06-07T10:55:00.059Z,22.44
2019-06-07T11:00:00.114Z,22.75
2019-06-07T11:05:00.091Z,22.88
2019-06-07T11:10:06.831Z,22.56
2019-06-07T11:15:00.064Z,22.13
2019-06-07T11:20:00.117Z,22
2019-06-07T11:25:00.117Z,21.94
2019-06-07T11:30:00.117Z,21.94
2019-06-07T11:35:00.069Z,22.31
2019-06-07T11:40:00.112Z,22.06
2019-06-07T11:45:00.120Z,21.5
2019-06-07T11:50:00.086Z,21.56
2019-06-07T11:55:00.102Z,21.69
2019-06-07T12:00:00.096Z,21.81
2019-06-07T12:05:00.102Z,22
2019-06-07T12:10:00.092Z,22.19
2019-06-07T12:15:00.064Z,22.75
2019-06-07T12:20:00.121Z,22.06
2019-06-07T12:25:00.105Z,22
2019-06-07T12:30:00.110Z,22.06
2019-06-07T12:35:00.058Z,22.63
2019-06-07T12:40:00.108Z,22.69
2019-06-07T12:45:00.087Z,22.94
2019-06-07T12:50:00.146Z,23.38
2019-06-07T12:55:00.086Z,22.75
2019-06-07T13:00:00.094Z,22.25
2019-06-07T13:05:04.258Z,22.06
2019-06-07T13:10:00.092Z,22.88
2019-06-07T13:15:00.119Z,23.44
2019-06-07T13:20:00.107Z,23
2019-06-07T13:25:00.054Z,22.56
2019-06-07T13:30:00.131Z,23
2019-06-07T13:35:00.109Z,23.56
2019-06-07T13:40:00.102Z,23.56
2019-06-07T13:45:00.112Z,23.69
2019-06-07T13:50:00.057Z,23.06
2019-06-07T13:55:02.215Z,22.75
2019-06-07T14:00:00.104Z,22.56
2019-06-07T14:05:00.091Z,22.69
2019-06-07T14:10:00.105Z,22.88
2019-06-07T14:15:00.094Z,22.69
2019-06-07T14:20:00.118Z,22.81
2019-06-07T14:25:00.108Z,22.81
2019-06-07T14:30:00.115Z,23
2019-06-07T14:35:00.095Z,22.94
2019-06-07T14:40:00.118Z,23.13
2019-06-07T14:45:05.020Z,23.38
2019-06-07T14:50:00.092Z,23.44
2019-06-07T14:55:00.120Z,23.44
2019-06-07T15:00:00.071Z,23.63
2019-06-07T15:05:00.106Z,23.69
2019-06-07T15:10:00.101Z,23.69
2019-06-07T15:15:00.094Z,23.69
2019-06-07T15:20:00.097Z,23.5
2019-06-07T15:25:00.105Z,23.63
2019-06-07T15:30:00.096Z,23.69
2019-06-07T15:35:00.110Z,23.63
2019-06-07T15:40:00.100Z,23.69
2019-06-07T15:45:00.101Z,23.75
2019-06-07T15:50:00.055Z,23.69
2019-06-07T15:55:00.113Z,23.63
2019-06-07T16:00:00.119Z,23.5
2019-06-07T16:05:00.104Z,23.5
2019-06-07T16:10:00.093Z,23.5
2019-06-07T16:15:00.098Z,23.63
2019-06-07T16:20:00.120Z,23.63
2019-06-07T16:25:00.097Z,23.75
2019-06-07T16:30:00.121Z,23.88
2019-06-07T16:35:00.096Z,23.75
2019-06-07T16:40:00.061Z,23.75
2019-06-07T16:45:00.102Z,23.75
2019-06-07T16:50:00.089Z,23.75
2019-06-07T16:55:00.099Z,24
2019-06-07T17:00:00.101Z,24
2019-06-07T17:05:00.127Z,23.94
2019-06-07T17:10:00.092Z,23.88
2019-06-07T17:15:00.092Z,23.81
2019-06-07T17:20:00.106Z,23.81
2019-06-07T17:25:00.096Z,23.81
2019-06-07T17:30:00.092Z,23.81
2019-06-07T17:35:00.106Z,23.88
2019-06-07T17:40:00.096Z,23.81
2019-06-07T17:45:00.096Z,23.75
2019-06-07T17:50:00.103Z,23.69
2019-06-07T17:55:00.106Z,23.5
2019-06-07T18:00:00.097Z,23.38
2019-06-07T18:05:00.121Z,23.25
2019-06-07T18:10:00.101Z,23.19
2019-06-07T18:15:00.091Z,23.13
2019-06-07T18:20:00.098Z,23
2019-06-07T18:25:00.094Z,22.94
2019-06-07T18:30:00.107Z,22.88
2019-06-07T18:35:00.392Z,22.81
2019-06-07T18:40:00.400Z,22.75
2019-06-07T18:45:00.093Z,22.63
2019-06-07T18:50:00.108Z,22.56
2019-06-07T18:55:00.108Z,22.44
2019-06-07T19:00:00.093Z,22.31
2019-06-07T19:05:00.109Z,22.19
2019-06-07T19:10:00.112Z,22.13
2019-06-07T19:15:00.115Z,22
2019-06-07T19:20:00.625Z,21.88
2019-06-07T19:25:00.537Z,21.69
2019-06-07T19:30:01.007Z,21.56
2019-06-07T19:35:00.105Z,21.44
2019-06-07T19:40:00.169Z,21.38
2019-06-07T19:45:24.285Z,21.25
2019-06-07T19:50:00.897Z,21.19
2019-06-07T19:55:01.390Z,21
2019-06-07T20:00:00.102Z,20.94
2019-06-07T20:05:03.671Z,20.81
2019-06-07T20:10:00.641Z,20.81
2019-06-07T20:15:18.407Z,20.69
2019-06-07T20:20:00.463Z,20.63
2019-06-07T20:25:00.811Z,20.5
2019-06-07T20:30:00.208Z,20.44
2019-06-07T20:35:00.058Z,20.38
2019-06-07T20:40:07.040Z,20.31
2019-06-07T20:45:00.096Z,20.13
2019-06-07T20:50:00.158Z,20.13
2019-06-07T20:55:00.532Z,20
2019-06-07T21:00:00.928Z,19.94
2019-06-07T21:05:01.088Z,19.75
2019-06-07T21:10:01.587Z,19.75
2019-06-07T21:15:04.144Z,19.69
2019-06-07T21:20:00.500Z,19.75
2019-06-07T21:25:00.651Z,19.75
2019-06-07T21:30:01.011Z,19.75
2019-06-07T21:35:00.106Z,19.75
2019-06-07T21:40:00.095Z,19.81
2019-06-07T21:45:00.111Z,19.81
2019-06-07T21:50:00.070Z,19.81
2019-06-07T21:55:00.093Z,19.75
2019-06-07T22:00:00.096Z,19.69
2019-06-07T22:05:00.104Z,19.56
2019-06-07T22:10:00.114Z,19.5
2019-06-07T22:15:00.069Z,19.38
2019-06-07T22:20:00.092Z,19.31
2019-06-07T22:25:00.111Z,19.25
2019-06-07T22:30:00.099Z,19.19
2019-06-07T22:35:00.130Z,19.25
2019-06-07T22:40:00.120Z,19.5
2019-06-07T22:45:00.141Z,19.63
2019-06-07T22:50:00.115Z,19.69
2019-06-07T22:55:00.091Z,19.5
2019-06-07T23:00:00.097Z,19.31
2019-06-07T23:05:04.543Z,19.13
2019-06-07T23:10:00.057Z,18.94
2019-06-07T23:15:00.055Z,18.81
2019-06-07T23:20:00.112Z,18.69
2019-06-07T23:25:00.109Z,18.63
2019-06-07T23:30:00.064Z,18.5
2019-06-07T23:35:00.094Z,18.44
2019-06-07T23:40:00.092Z,18.38
2019-06-07T23:45:00.102Z,18.25
2019-06-07T23:50:00.097Z,18.19
2019-06-07T23:55:00.060Z,18.13
